Chiba, Japan

7:58 AM JST on July 05, 2015 (GMT +0900)
Funabashi | | Change Station
CLOSE
Current Station
Personal Weather Station
Location: Funabashi, CHIBA
Elevation: 92 ft
Nearby Weather Stations

Elev 92 ft 35.74 °N, 140.04 °E | Updated 0 second ago

Light Rain
Light Rain Mist
66.9 °F
Feels Like 66.9 °F
N
1.0
Wind Variable Wind from NW
Gusts 1.0 mph

Today
High -- | Low -- °F
--% Chance of Precip.
Yesterday
High -- | Low -- °F
Precip. -- in
4:29 AM 6:58 PM
Waning Gibbous, 89% visible
Pressure 29.86 in
Visibility 2.5 miles
Clouds Few 300 ft
Mostly Cloudy 800 ft
Overcast 2500 ft
Dew Point 66 °F
Humidity 98%
Rainfall 0.54 in
Snow Depth Not available.
UV 0.0 out of 12
Pollen Not available.
Air Quality Not available.
Flu Activity Not available.
SPECI RJTL 042216Z 04003KT 010V070 4000 -RA BR FEW003 BKN008 OVC025 19/19 Q1011 RMK 2ST003 5ST008 8SC025 A2986

More Conditions Fewer Conditions

Pressure 29.86 in
Visibility 2.5 miles
Clouds Few 300 ft
Mostly Cloudy 800 ft
Overcast 2500 ft
Dew Point 66 °F
Humidity 98%
Rainfall 0.54 in
Snow Depth Not available.
UV 0.0 out of 12
Pollen Not available.
Air Quality Not available.
Flu Activity Not available.
SPECI RJTL 042216Z 04003KT 010V070 4000 -RA BR FEW003 BKN008 OVC025 19/19 Q1011 RMK 2ST003 5ST008 8SC025 A2986

More Conditions Fewer Conditions

10-Day Weather Forecast

×

Almanac

Astronomy

Jul. 05, 2015 Rise Set
Actual Time
Civil Twilight
Nautical Twilight
Astronomical Twilight
Moon
Length of Visible Light
Length of Day
Tomorrow will be .
, % of the Moon is Illuminated

Today's Extremes

Country Highs Country Lows

Community

WunderPhotos

Upload Photos

1,835,105 photos uploaded!

WunderBlogs® & News

Nearby

Air Quality

  Air Quality AQ Index Pollutant
Not available.

Snow Depth

Station Depth Elevation

Earthquake Activity

City Distance Mag. Time & Date
Minimum magnitude displayed is 2.5.

Coastal Water Temperatures

Place Temperature

Stations

Nearby Weather Stations

Station Location Temp. Windchill Dew Point Humidity Wind Precip. Elev Updated Type